createdAt,value
2019-03-29T00:01:55.117Z,3.43
2019-03-29T00:04:33.440Z,4.77
2019-03-29T00:07:09.910Z,5.60
2019-03-29T00:09:46.828Z,3.65
2019-03-29T00:12:23.511Z,3.63
2019-03-29T00:15:00.380Z,2.50
2019-03-29T00:17:37.192Z,5.78
2019-03-29T00:20:14.090Z,3.20
2019-03-29T00:22:51.484Z,2.92
2019-03-29T00:25:28.777Z,2.65
2019-03-29T00:28:05.522Z,4.15
2019-03-29T00:30:43.161Z,3.73
2019-03-29T00:33:19.933Z,3.13
2019-03-29T00:35:57.802Z,3.50
2019-03-29T00:38:35.198Z,3.30
2019-03-29T00:41:13.425Z,3.77
2019-03-29T00:43:50.673Z,3.45
2019-03-29T00:46:29.997Z,3.57
2019-03-29T00:49:07.117Z,3.22
2019-03-29T00:51:46.349Z,4.08
2019-03-29T00:54:23.454Z,4.30
2019-03-29T00:57:03.400Z,3.17
2019-03-29T00:59:40.845Z,2.30
2019-03-29T01:02:19.116Z,2.33
2019-03-29T01:04:56.129Z,4.00
2019-03-29T01:07:33.874Z,2.98
2019-03-29T01:10:11.246Z,3.63
2019-03-29T01:12:52.249Z,3.75
2019-03-29T01:15:29.186Z,2.40
2019-03-29T01:18:06.361Z,4.85
2019-03-29T01:20:43.767Z,3.25
2019-03-29T01:23:20.576Z,3.47
2019-03-29T01:25:57.606Z,4.20
2019-03-29T01:28:35.394Z,3.35
2019-03-29T01:31:11.869Z,4.87
2019-03-29T01:33:49.417Z,3.75
2019-03-29T01:36:25.684Z,4.37
2019-03-29T01:39:03.560Z,4.92
2019-03-29T01:41:40.809Z,2.80
2019-03-29T01:44:18.486Z,3.90
2019-03-29T01:46:55.184Z,4.35
2019-03-29T01:49:31.770Z,2.95
2019-03-29T01:52:08.984Z,3.30
2019-03-29T01:54:46.170Z,4.17
2019-03-29T01:57:23.109Z,3.37
2019-03-29T02:00:00.609Z,2.27
2019-03-29T02:02:37.104Z,3.58
2019-03-29T02:05:14.696Z,3.33
2019-03-29T02:07:52.075Z,4.40
2019-03-29T02:10:29.460Z,2.83
2019-03-29T02:13:06.618Z,2.90
2019-03-29T02:15:43.817Z,5.00
2019-03-29T02:18:20.234Z,2.75
2019-03-29T02:20:57.097Z,3.60
2019-03-29T02:23:34.170Z,4.62
2019-03-29T02:26:11.061Z,4.87
2019-03-29T02:28:48.131Z,5.17
2019-03-29T02:31:26.377Z,4.78
2019-03-29T02:34:04.264Z,6.00
2019-03-29T02:36:41.016Z,2.92
2019-03-29T02:39:17.493Z,4.37
2019-03-29T02:41:55.806Z,2.13
2019-03-29T02:44:34.826Z,2.27
2019-03-29T02:47:12.122Z,3.85
2019-03-29T02:49:48.348Z,3.23
2019-03-29T02:52:24.663Z,3.50
2019-03-29T02:55:01.522Z,3.80
2019-03-29T02:57:39.310Z,5.57
2019-03-29T03:00:18.068Z,4.75
2019-03-29T03:02:55.137Z,4.00
2019-03-29T03:05:31.909Z,3.05
2019-03-29T03:08:08.687Z,3.45
2019-03-29T03:10:45.758Z,3.60
2019-03-29T03:13:22.439Z,3.12
2019-03-29T03:15:59.132Z,3.80
2019-03-29T03:18:37.541Z,2.25
2019-03-29T03:21:14.088Z,2.87
2019-03-29T03:23:51.903Z,6.03
2019-03-29T03:26:29.084Z,3.33
2019-03-29T03:29:07.089Z,3.70
2019-03-29T03:31:44.357Z,4.10
2019-03-29T03:34:22.456Z,3.27
2019-03-29T03:36:59.250Z,2.87
2019-03-29T03:39:36.273Z,2.37
2019-03-29T03:42:12.904Z,2.87
2019-03-29T03:44:49.654Z,2.63
2019-03-29T03:47:26.530Z,3.27
2019-03-29T03:50:02.980Z,2.67
2019-03-29T03:52:39.537Z,2.67
2019-03-29T03:55:16.693Z,2.50
2019-03-29T03:57:57.501Z,4.60
2019-03-29T04:00:57.857Z,3.92
2019-03-29T04:03:34.437Z,3.70
2019-03-29T04:06:11.549Z,2.65
2019-03-29T04:08:48.088Z,3.05
2019-03-29T04:11:24.886Z,3.40
2019-03-29T04:14:02.991Z,2.87
2019-03-29T04:16:40.130Z,3.37
2019-03-29T04:19:16.954Z,2.67
2019-03-29T04:21:54.861Z,4.35
2019-03-29T04:24:31.526Z,4.30
2019-03-29T04:27:08.428Z,3.10
2019-03-29T04:29:45.786Z,3.37
2019-03-29T04:32:23.087Z,2.90
2019-03-29T04:34:59.744Z,3.17
2019-03-29T04:37:43.743Z,4.10
2019-03-29T04:40:20.457Z,4.63
2019-03-29T04:42:57.335Z,4.60
2019-03-29T04:45:35.137Z,3.00
2019-03-29T04:48:12.850Z,4.03
2019-03-29T04:50:50.073Z,1.80
2019-03-29T04:53:26.784Z,2.47
2019-03-29T04:56:03.160Z,4.08
2019-03-29T04:58:40.021Z,2.73
2019-03-29T05:01:17.434Z,3.20
2019-03-29T05:03:54.161Z,3.27
2019-03-29T05:06:31.097Z,3.95
2019-03-29T05:09:08.760Z,2.93
2019-03-29T05:11:45.654Z,1.92
2019-03-29T05:14:22.307Z,2.20
2019-03-29T05:16:58.921Z,2.95
2019-03-29T05:19:35.866Z,3.50
2019-03-29T05:22:12.972Z,1.75
2019-03-29T05:24:49.663Z,2.55
2019-03-29T05:27:26.833Z,3.77
2019-03-29T05:30:03.642Z,3.17
2019-03-29T05:32:40.789Z,2.83
2019-03-29T05:35:17.324Z,3.67
2019-03-29T05:37:54.441Z,2.10
2019-03-29T05:40:35.172Z,4.30
2019-03-29T05:43:12.271Z,4.10
2019-03-29T05:45:50.401Z,2.45
2019-03-29T05:48:27.177Z,2.43
2019-03-29T05:51:04.137Z,2.95
2019-03-29T05:53:41.145Z,3.53
2019-03-29T05:56:17.673Z,4.70
2019-03-29T05:58:54.241Z,2.87
2019-03-29T06:01:31.381Z,2.70
2019-03-29T06:04:08.129Z,3.87
2019-03-29T06:06:45.090Z,3.12
2019-03-29T06:09:21.980Z,3.90
2019-03-29T06:11:58.685Z,3.27
2019-03-29T06:14:35.065Z,4.80
2019-03-29T06:17:12.615Z,2.77
2019-03-29T06:19:49.124Z,12.20
2019-03-29T06:22:26.610Z,11.10
2019-03-29T06:25:03.503Z,21.77
2019-03-29T06:27:42.394Z,12.78
2019-03-29T06:30:31.668Z,23.20
2019-03-29T06:33:08.789Z,10.72
2019-03-29T06:35:47.886Z,11.20
2019-03-29T06:38:26.190Z,13.40
2019-03-29T06:41:03.761Z,13.28
2019-03-29T06:43:41.648Z,12.45
2019-03-29T06:46:17.966Z,13.40
2019-03-29T06:48:55.152Z,9.67
2019-03-29T06:51:32.222Z,8.08
2019-03-29T06:54:09.054Z,11.65
2019-03-29T06:56:46.074Z,8.40
2019-03-29T06:59:22.869Z,11.12
2019-03-29T07:02:00.048Z,10.63
2019-03-29T07:04:37.316Z,9.95
2019-03-29T07:07:13.892Z,11.63
2019-03-29T07:09:51.239Z,7.95
2019-03-29T07:12:28.469Z,13.35
2019-03-29T07:15:05.358Z,6.63
2019-03-29T07:17:41.941Z,11.80
2019-03-29T07:20:18.856Z,11.12
2019-03-29T07:22:56.071Z,7.93
2019-03-29T07:25:32.879Z,11.25
2019-03-29T07:28:10.033Z,8.68
2019-03-29T07:30:47.277Z,6.80
2019-03-29T07:33:24.121Z,11.48
2019-03-29T07:36:01.166Z,5.60
2019-03-29T07:38:38.670Z,7.67
2019-03-29T07:41:15.477Z,7.65
2019-03-29T07:43:52.911Z,8.90
2019-03-29T07:46:30.029Z,8.50
2019-03-29T07:49:06.397Z,6.45
2019-03-29T07:51:42.879Z,5.10
2019-03-29T07:54:19.356Z,5.22
2019-03-29T07:56:57.158Z,5.80
2019-03-29T07:59:34.272Z,5.33
2019-03-29T08:02:11.217Z,5.42
2019-03-29T08:04:47.857Z,4.97
2019-03-29T08:07:27.458Z,5.37
2019-03-29T08:10:05.521Z,7.57
2019-03-29T08:12:42.205Z,5.25
2019-03-29T08:15:19.319Z,6.72
2019-03-29T08:17:57.229Z,7.30
2019-03-29T08:20:41.973Z,8.88
2019-03-29T08:23:13.408Z,4.05
2019-03-29T08:25:50.569Z,6.53
2019-03-29T08:28:27.473Z,8.30
2019-03-29T08:31:04.204Z,4.97
2019-03-29T08:33:41.413Z,7.72
2019-03-29T08:36:18.141Z,9.25
2019-03-29T08:38:55.620Z,7.78
2019-03-29T08:41:32.400Z,5.28
2019-03-29T08:44:11.847Z,5.03
2019-03-29T08:46:49.168Z,6.58
2019-03-29T08:49:26.532Z,8.45
2019-03-29T08:52:03.461Z,9.08
2019-03-29T08:54:40.418Z,7.83
2019-03-29T08:57:17.288Z,7.75
2019-03-29T08:59:53.566Z,5.25
2019-03-29T09:02:30.005Z,7.95
2019-03-29T09:05:07.902Z,8.15
2019-03-29T09:07:45.526Z,6.12
2019-03-29T09:10:25.729Z,7.03
2019-03-29T09:13:04.349Z,5.17
2019-03-29T09:15:41.620Z,7.53
2019-03-29T09:18:18.161Z,6.55
2019-03-29T09:20:55.169Z,10.23
2019-03-29T09:23:32.346Z,5.78
2019-03-29T09:26:09.102Z,7.78
2019-03-29T09:28:46.258Z,6.25
2019-03-29T09:31:23.593Z,5.22
2019-03-29T09:34:00.631Z,5.12
2019-03-29T09:36:37.298Z,4.30
2019-03-29T09:39:15.091Z,4.92
2019-03-29T09:41:52.229Z,5.47
2019-03-29T09:44:29.597Z,3.60
2019-03-29T09:47:07.397Z,5.47
2019-03-29T09:49:43.979Z,7.53
2019-03-29T09:52:21.428Z,4.92
2019-03-29T09:54:58.790Z,5.42
2019-03-29T09:57:37.889Z,3.77
2019-03-29T10:00:20.838Z,4.62
2019-03-29T10:02:54.736Z,4.50
2019-03-29T10:05:32.081Z,3.40
2019-03-29T10:08:09.852Z,3.27
2019-03-29T10:10:48.167Z,5.75
2019-03-29T10:13:24.886Z,5.10
2019-03-29T10:16:01.677Z,3.20
2019-03-29T10:18:39.620Z,4.08
2019-03-29T10:21:17.307Z,4.85
2019-03-29T10:23:56.594Z,3.42
2019-03-29T10:26:33.573Z,3.40
2019-03-29T10:29:10.366Z,3.33
2019-03-29T10:31:47.760Z,2.45
2019-03-29T10:34:25.253Z,3.65
2019-03-29T10:37:01.910Z,2.12
2019-03-29T10:39:39.644Z,2.58
2019-03-29T10:42:16.704Z,3.30
2019-03-29T10:44:54.284Z,5.45
2019-03-29T10:47:42.952Z,2.58
2019-03-29T10:50:09.869Z,2.85
2019-03-29T10:52:47.084Z,5.30
2019-03-29T10:55:24.396Z,4.87
2019-03-29T10:58:01.205Z,3.12
2019-03-29T11:00:39.178Z,6.47
2019-03-29T11:03:15.862Z,6.97
2019-03-29T11:05:52.913Z,6.95
2019-03-29T11:08:30.088Z,6.12
2019-03-29T11:11:07.299Z,2.40
2019-03-29T11:13:44.360Z,6.67
2019-03-29T11:16:21.197Z,3.72
2019-03-29T11:18:57.999Z,3.22
2019-03-29T11:21:34.504Z,2.37
2019-03-29T11:24:11.866Z,3.33
2019-03-29T11:26:49.514Z,3.42
2019-03-29T11:29:26.283Z,4.25
2019-03-29T11:32:03.693Z,4.00
2019-03-29T11:34:40.985Z,3.08
2019-03-29T11:37:17.353Z,5.28
2019-03-29T11:39:54.056Z,7.33
2019-03-29T11:42:31.488Z,4.08
2019-03-29T11:45:09.578Z,14.28
2019-03-29T11:47:47.419Z,9.75
2019-03-29T11:50:24.645Z,12.23
2019-03-29T11:53:01.435Z,7.47
2019-03-29T11:55:38.505Z,5.97
2019-03-29T11:58:15.483Z,5.37
2019-03-29T12:00:52.739Z,6.25
2019-03-29T12:03:29.284Z,7.60
2019-03-29T12:06:05.723Z,6.80
2019-03-29T12:08:43.010Z,10.40
2019-03-29T12:11:19.458Z,9.95
2019-03-29T12:13:56.882Z,8.98
2019-03-29T12:16:33.993Z,4.40
2019-03-29T12:19:10.696Z,5.28
2019-03-29T12:21:47.804Z,4.80
2019-03-29T12:24:25.409Z,5.40
2019-03-29T12:27:02.129Z,5.65
2019-03-29T12:29:39.499Z,4.53
2019-03-29T12:32:16.621Z,7.47
2019-03-29T12:34:53.554Z,5.30
2019-03-29T12:37:29.824Z,4.65
2019-03-29T12:40:07.225Z,4.83
2019-03-29T12:42:43.530Z,2.52
2019-03-29T12:45:21.538Z,5.55
2019-03-29T12:47:58.208Z,3.85
2019-03-29T12:50:35.140Z,3.17
2019-03-29T12:53:12.199Z,8.75
2019-03-29T12:55:52.552Z,3.50
2019-03-29T12:58:29.292Z,4.80
2019-03-29T13:01:05.689Z,4.70
2019-03-29T13:03:42.789Z,5.67
2019-03-29T13:06:21.103Z,3.27
2019-03-29T13:08:58.469Z,2.90
2019-03-29T13:11:37.788Z,5.45
2019-03-29T13:14:14.761Z,3.47
2019-03-29T13:16:52.057Z,3.10
2019-03-29T13:19:29.040Z,6.25
2019-03-29T13:22:06.505Z,2.65
2019-03-29T13:24:43.730Z,2.65
2019-03-29T13:27:21.760Z,3.30
2019-03-29T13:29:58.811Z,3.08
2019-03-29T13:32:36.186Z,3.22
2019-03-29T13:35:12.946Z,3.37
2019-03-29T13:37:50.086Z,2.02
2019-03-29T13:40:27.380Z,3.10
2019-03-29T13:43:04.841Z,2.80
2019-03-29T13:45:41.805Z,2.45
2019-03-29T13:48:19.040Z,3.37
2019-03-29T13:50:59.161Z,1.90
2019-03-29T13:53:33.795Z,2.55
2019-03-29T13:56:10.955Z,2.17
2019-03-29T13:58:47.429Z,3.05
2019-03-29T14:01:24.508Z,2.80
2019-03-29T14:04:02.060Z,2.50
2019-03-29T14:06:38.461Z,2.47
2019-03-29T14:09:16.001Z,3.60
2019-03-29T14:11:52.622Z,3.70
2019-03-29T14:14:38.064Z,2.98
2019-03-29T14:17:07.197Z,4.20
2019-03-29T14:19:44.513Z,3.45
2019-03-29T14:22:21.065Z,2.25
2019-03-29T14:24:57.757Z,2.83
2019-03-29T14:27:34.505Z,2.00
2019-03-29T14:30:12.032Z,2.45
2019-03-29T14:32:48.760Z,2.47
2019-03-29T14:35:25.717Z,4.37
2019-03-29T14:38:02.829Z,3.08
2019-03-29T14:40:40.689Z,3.45
2019-03-29T14:43:17.025Z,4.50
2019-03-29T14:45:53.694Z,3.80
2019-03-29T14:48:31.076Z,2.65
2019-03-29T14:51:08.222Z,2.85
2019-03-29T14:53:45.149Z,3.10
2019-03-29T14:56:21.398Z,2.72
2019-03-29T14:58:57.761Z,2.62
2019-03-29T15:01:34.673Z,2.92
2019-03-29T15:04:11.561Z,2.30
2019-03-29T15:06:49.216Z,2.47
2019-03-29T15:09:29.531Z,2.55
2019-03-29T15:12:07.140Z,2.77
2019-03-29T15:14:44.982Z,2.30
2019-03-29T15:17:22.404Z,3.17
2019-03-29T15:19:58.848Z,2.22
2019-03-29T15:22:35.917Z,2.60
2019-03-29T15:25:12.581Z,5.40
2019-03-29T15:27:49.952Z,3.77
2019-03-29T15:30:26.373Z,3.22
2019-03-29T15:33:03.173Z,4.75
2019-03-29T15:35:44.873Z,4.45
2019-03-29T15:38:21.372Z,7.70
2019-03-29T15:40:58.631Z,5.58
2019-03-29T15:43:35.861Z,9.30
2019-03-29T15:46:13.361Z,4.50
2019-03-29T15:48:50.858Z,3.47
2019-03-29T15:51:29.705Z,4.50
2019-03-29T15:54:06.211Z,15.18
2019-03-29T15:56:43.453Z,6.75
2019-03-29T15:59:20.628Z,8.00
2019-03-29T16:01:57.582Z,4.97
2019-03-29T16:04:34.882Z,6.33
2019-03-29T16:07:11.360Z,3.58
2019-03-29T16:09:48.558Z,4.80
2019-03-29T16:12:25.266Z,4.70
2019-03-29T16:15:02.462Z,8.00
2019-03-29T16:17:39.369Z,4.83
2019-03-29T16:20:16.405Z,4.23
2019-03-29T16:22:52.625Z,5.17
2019-03-29T16:25:29.271Z,9.23
2019-03-29T16:28:06.085Z,3.95
2019-03-29T16:30:43.493Z,7.20
2019-03-29T16:33:20.128Z,3.80
2019-03-29T16:35:57.661Z,6.40
2019-03-29T16:38:34.507Z,5.85
2019-03-29T16:41:12.138Z,4.33
2019-03-29T16:43:48.860Z,4.10
2019-03-29T16:46:26.470Z,4.50
2019-03-29T16:49:03.478Z,5.78
2019-03-29T16:51:42.495Z,5.08
2019-03-29T16:54:19.322Z,4.85
2019-03-29T16:56:56.319Z,3.10
2019-03-29T16:59:34.593Z,3.67
2019-03-29T17:02:11.221Z,3.47
2019-03-29T17:04:48.441Z,3.87
2019-03-29T17:07:25.793Z,7.50
2019-03-29T17:10:03.588Z,6.65
2019-03-29T17:12:41.185Z,6.47
2019-03-29T17:15:18.232Z,5.97
2019-03-29T17:17:55.141Z,6.37
2019-03-29T17:20:32.718Z,8.10
2019-03-29T17:23:09.529Z,3.58
2019-03-29T17:25:46.853Z,10.28
2019-03-29T17:28:24.145Z,5.35
2019-03-29T17:31:04.101Z,7.97
2019-03-29T17:33:41.667Z,5.03
2019-03-29T17:36:18.456Z,14.00
2019-03-29T17:38:55.615Z,3.67
2019-03-29T17:41:33.003Z,4.97
2019-03-29T17:44:10.843Z,7.75
2019-03-29T17:46:47.659Z,7.33
2019-03-29T17:49:25.176Z,5.83
2019-03-29T17:52:02.236Z,5.53
2019-03-29T17:54:39.256Z,6.08
2019-03-29T17:57:16.087Z,5.40
2019-03-29T17:59:53.474Z,6.22
2019-03-29T18:02:30.528Z,5.70
2019-03-29T18:05:09.436Z,6.28
2019-03-29T18:07:46.597Z,3.42
2019-03-29T18:10:24.596Z,3.30
2019-03-29T18:13:00.949Z,5.60
2019-03-29T18:15:37.321Z,3.30
2019-03-29T18:18:13.876Z,3.40
2019-03-29T18:20:51.161Z,3.90
2019-03-29T18:23:28.676Z,5.22
2019-03-29T18:26:05.941Z,4.78
2019-03-29T18:28:43.148Z,6.83
2019-03-29T18:31:20.231Z,3.75
2019-03-29T18:33:57.460Z,4.03
2019-03-29T18:36:34.897Z,4.08
2019-03-29T18:39:11.677Z,4.55
2019-03-29T18:41:48.803Z,4.03
2019-03-29T18:44:25.258Z,4.03
2019-03-29T18:47:02.821Z,4.40
2019-03-29T18:49:40.517Z,3.67
2019-03-29T18:52:17.388Z,9.45
2019-03-29T18:54:54.311Z,4.17
2019-03-29T18:57:31.782Z,5.10
2019-03-29T19:00:08.720Z,2.45
2019-03-29T19:02:45.545Z,3.12
2019-03-29T19:05:26.618Z,4.55
2019-03-29T19:08:03.594Z,4.05
2019-03-29T19:10:40.919Z,2.43
2019-03-29T19:13:18.259Z,4.70
2019-03-29T19:15:55.500Z,3.43
2019-03-29T19:18:33.357Z,5.05
2019-03-29T19:21:09.824Z,2.67
2019-03-29T19:23:49.113Z,4.45
2019-03-29T19:26:26.970Z,3.83
2019-03-29T19:29:04.667Z,3.25
2019-03-29T19:31:42.133Z,3.92
2019-03-29T19:34:19.431Z,2.72
2019-03-29T19:36:56.586Z,2.97
2019-03-29T19:39:33.391Z,3.22
2019-03-29T19:42:10.780Z,3.58
2019-03-29T19:44:48.491Z,2.65
2019-03-29T19:47:24.825Z,3.50
2019-03-29T19:50:02.550Z,3.67
2019-03-29T19:52:39.557Z,2.90
2019-03-29T19:55:17.248Z,4.05
2019-03-29T19:57:55.510Z,3.70
2019-03-29T20:00:40.624Z,2.65
2019-03-29T20:03:17.929Z,3.83
2019-03-29T20:05:55.914Z,2.65
2019-03-29T20:08:32.657Z,3.90
2019-03-29T20:11:10.146Z,3.77
2019-03-29T20:13:46.548Z,4.17
2019-03-29T20:16:23.699Z,3.70
2019-03-29T20:18:59.929Z,3.35
2019-03-29T20:21:37.720Z,3.37
2019-03-29T20:24:14.447Z,5.00
2019-03-29T20:26:53.557Z,3.35
2019-03-29T20:29:31.153Z,3.47
2019-03-29T20:32:08.926Z,4.70
2019-03-29T20:34:45.343Z,3.22
2019-03-29T20:37:22.824Z,3.98
2019-03-29T20:39:59.911Z,3.70
2019-03-29T20:42:37.509Z,2.72
2019-03-29T20:45:14.355Z,3.08
2019-03-29T20:47:52.102Z,3.30
2019-03-29T20:50:29.616Z,4.83
2019-03-29T20:53:06.857Z,3.25
2019-03-29T20:55:43.830Z,4.92
2019-03-29T20:58:20.920Z,5.03
2019-03-29T21:00:58.254Z,3.25
2019-03-29T21:03:34.487Z,5.50
2019-03-29T21:06:10.955Z,4.03
2019-03-29T21:08:47.405Z,2.80
2019-03-29T21:11:24.586Z,3.47
2019-03-29T21:14:01.045Z,3.72
2019-03-29T21:16:37.380Z,3.15
2019-03-29T21:19:14.922Z,3.60
2019-03-29T21:21:51.724Z,3.40
2019-03-29T21:24:29.518Z,6.37
2019-03-29T21:27:07.524Z,3.47
2019-03-29T21:29:45.138Z,5.08
2019-03-29T21:32:21.700Z,4.78
2019-03-29T21:34:59.659Z,7.72
2019-03-29T21:37:37.171Z,6.05
2019-03-29T21:40:15.111Z,8.83
2019-03-29T21:42:51.464Z,7.10
2019-03-29T21:45:29.190Z,4.62
2019-03-29T21:48:27.387Z,3.45
2019-03-29T21:50:44.008Z,6.78
2019-03-29T21:53:20.344Z,4.65
2019-03-29T21:55:59.926Z,4.62
2019-03-29T21:58:37.331Z,5.58
2019-03-29T22:01:15.232Z,4.03
2019-03-29T22:03:52.777Z,3.80
2019-03-29T22:06:29.900Z,3.58
2019-03-29T22:09:08.405Z,3.12
2019-03-29T22:11:46.090Z,3.22
2019-03-29T22:14:22.408Z,3.60
2019-03-29T22:16:58.972Z,3.02
2019-03-29T22:19:35.960Z,2.83
2019-03-29T22:22:12.884Z,4.22
2019-03-29T22:24:49.702Z,4.45
2019-03-29T22:27:28.103Z,3.67
2019-03-29T22:30:07.810Z,4.37
2019-03-29T22:32:45.008Z,5.33
2019-03-29T22:35:22.103Z,4.15
2019-03-29T22:37:59.316Z,4.40
2019-03-29T22:40:36.577Z,3.37
2019-03-29T22:43:13.859Z,3.70
2019-03-29T22:45:51.332Z,4.55
2019-03-29T22:48:28.500Z,4.12
2019-03-29T22:51:05.462Z,3.75
2019-03-29T22:53:42.732Z,4.25
2019-03-29T22:56:19.169Z,4.62
2019-03-29T22:58:56.623Z,3.92
2019-03-29T23:01:36.519Z,3.70
2019-03-29T23:04:14.128Z,3.87
2019-03-29T23:06:52.519Z,4.03
2019-03-29T23:09:29.454Z,4.63
2019-03-29T23:12:06.417Z,4.22
2019-03-29T23:14:43.217Z,4.12
2019-03-29T23:17:19.932Z,3.70
2019-03-29T23:19:58.363Z,4.50
2019-03-29T23:22:35.556Z,3.52
2019-03-29T23:25:13.146Z,5.12
2019-03-29T23:27:50.327Z,3.85
2019-03-29T23:30:27.873Z,2.83
2019-03-29T23:33:04.681Z,3.25
2019-03-29T23:35:42.813Z,4.17
2019-03-29T23:38:20.488Z,3.95
2019-03-29T23:40:57.850Z,3.22
2019-03-29T23:43:35.714Z,4.65
2019-03-29T23:46:12.175Z,3.47
2019-03-29T23:48:49.062Z,4.85
2019-03-29T23:51:25.837Z,4.37
2019-03-29T23:54:02.619Z,3.42
2019-03-29T23:56:40.094Z,4.95
2019-03-29T23:59:17.033Z,3.22
